sensor_id;sensor_type;location;lat;lon;timestamp;pressure;altitude;pressure_sealevel;temperature;humidity
81802;BME280;71199;52.490;5.448;2023-10-08T00:01:53;102387.28;;;17.01;89.14
81802;BME280;71199;52.490;5.448;2023-10-08T00:04:21;102384.66;;;16.99;89.51
81802;BME280;71199;52.490;5.448;2023-10-08T00:06:47;102389.69;;;16.96;89.66
81802;BME280;71199;52.490;5.448;2023-10-08T00:09:12;102396.31;;;16.95;89.58
81802;BME280;71199;52.490;5.448;2023-10-08T00:11:39;102385.34;;;17.01;89.40
81802;BME280;71199;52.490;5.448;2023-10-08T00:14:06;102381.34;;;17.04;88.87
81802;BME280;71199;52.490;5.448;2023-10-08T00:16:38;102377.56;;;16.97;88.83
81802;BME280;71199;52.490;5.448;2023-10-08T00:19:06;102374.28;;;16.93;89.02
81802;BME280;71199;52.490;5.448;2023-10-08T00:21:36;102372.22;;;16.87;89.40
81802;BME280;71199;52.490;5.448;2023-10-08T00:24:03;102367.50;;;16.79;90.03
81802;BME280;71199;52.490;5.448;2023-10-08T00:26:32;102384.16;;;16.79;90.04
81802;BME280;71199;52.490;5.448;2023-10-08T00:29:02;102353.09;;;16.76;90.22
81802;BME280;71199;52.490;5.448;2023-10-08T00:31:46;102364.75;;;16.71;90.38
81802;BME280;71199;52.490;5.448;2023-10-08T00:34:14;102359.56;;;16.68;90.93
81802;BME280;71199;52.490;5.448;2023-10-08T00:36:41;102358.50;;;16.69;91.37
81802;BME280;71199;52.490;5.448;2023-10-08T00:39:08;102340.66;;;16.63;91.43
81802;BME280;71199;52.490;5.448;2023-10-08T00:41:40;102352.63;;;16.64;91.60
81802;BME280;71199;52.490;5.448;2023-10-08T00:44:08;102347.09;;;16.64;91.27
81802;BME280;71199;52.490;5.448;2023-10-08T00:46:34;102332.31;;;16.63;91.56
81802;BME280;71199;52.490;5.448;2023-10-08T00:49:18;102324.88;;;16.64;91.60
81802;BME280;71199;52.490;5.448;2023-10-08T00:51:48;102324.88;;;16.64;91.66
81802;BME280;71199;52.490;5.448;2023-10-08T00:54:26;102326.78;;;16.63;91.43
81802;BME280;71199;52.490;5.448;2023-10-08T00:56:58;102325.75;;;16.64;91.38
81802;BME280;71199;52.490;5.448;2023-10-08T00:59:24;102343.25;;;16.65;91.38
81802;BME280;71199;52.490;5.448;2023-10-08T01:01:58;102347.09;;;16.64;91.59
81802;BME280;71199;52.490;5.448;2023-10-08T01:04:29;102364.06;;;16.69;91.19
81802;BME280;71199;52.490;5.448;2023-10-08T01:06:59;102368.22;;;16.73;91.07
81802;BME280;71199;52.490;5.448;2023-10-08T01:09:27;102356.78;;;16.84;90.65
81802;BME280;71199;52.490;5.448;2023-10-08T01:12:14;102360.25;;;16.78;91.34
81802;BME280;71199;52.490;5.448;2023-10-08T01:14:53;102370.81;;;16.75;91.73
81802;BME280;71199;52.490;5.448;2023-10-08T01:17:22;102376.91;;;16.70;92.07
81802;BME280;71199;52.490;5.448;2023-10-08T01:19:52;102384.88;;;16.65;92.18
81802;BME280;71199;52.490;5.448;2023-10-08T01:22:56;102374.84;;;16.64;92.18
81802;BME280;71199;52.490;5.448;2023-10-08T01:25:22;102381.94;;;16.66;92.05
81802;BME280;71199;52.490;5.448;2023-10-08T01:27:55;102373.94;;;16.71;91.75
81802;BME280;71199;52.490;5.448;2023-10-08T01:30:21;102395.81;;;16.66;91.87
81802;BME280;71199;52.490;5.448;2023-10-08T01:32:46;102417.88;;;16.60;92.24
81802;BME280;71199;52.490;5.448;2023-10-08T01:35:12;102414.56;;;16.56;92.23
81802;BME280;71199;52.490;5.448;2023-10-08T01:37:49;102409.72;;;16.58;92.23
81802;BME280;71199;52.490;5.448;2023-10-08T01:40:15;102422.53;;;16.51;91.77
81802;BME280;71199;52.490;5.448;2023-10-08T01:42:41;102423.44;;;16.43;91.87
81802;BME280;71199;52.490;5.448;2023-10-08T01:45:07;102442.16;;;16.33;92.04
81802;BME280;71199;52.490;5.448;2023-10-08T01:47:35;102453.75;;;16.28;91.79
81802;BME280;71199;52.490;5.448;2023-10-08T01:50:01;102477.13;;;16.09;91.42
81802;BME280;71199;52.490;5.448;2023-10-08T01:52:31;102466.31;;;15.82;91.35
81802;BME280;71199;52.490;5.448;2023-10-08T01:54:56;102445.44;;;15.61;92.58
81802;BME280;71199;52.490;5.448;2023-10-08T01:57:22;102450.91;;;15.45;92.96
81802;BME280;71199;52.490;5.448;2023-10-08T01:59:48;102456.56;;;15.35;93.43
81802;BME280;71199;52.490;5.448;2023-10-08T02:02:13;102465.72;;;15.27;93.40
81802;BME280;71199;52.490;5.448;2023-10-08T02:04:40;102478.84;;;15.25;93.01
81802;BME280;71199;52.490;5.448;2023-10-08T02:07:06;102476.47;;;15.04;93.68
81802;BME280;71199;52.490;5.448;2023-10-08T02:09:40;102466.59;;;14.76;93.74
81802;BME280;71199;52.490;5.448;2023-10-08T02:12:06;102469.09;;;14.61;93.21
81802;BME280;71199;52.490;5.448;2023-10-08T02:14:31;102452.88;;;14.48;93.25
81802;BME280;71199;52.490;5.448;2023-10-08T02:17:01;102447.34;;;14.30;93.29
81802;BME280;71199;52.490;5.448;2023-10-08T02:19:33;102460.38;;;14.20;93.64
81802;BME280;71199;52.490;5.448;2023-10-08T02:22:01;102460.31;;;14.11;92.56
81802;BME280;71199;52.490;5.448;2023-10-08T02:24:27;102459.44;;;14.11;92.02
81802;BME280;71199;52.490;5.448;2023-10-08T02:26:55;102484.72;;;13.98;92.22
81802;BME280;71199;52.490;5.448;2023-10-08T02:29:25;102481.38;;;13.95;92.51
81802;BME280;71199;52.490;5.448;2023-10-08T02:31:51;102468.28;;;13.97;92.19
81802;BME280;71199;52.490;5.448;2023-10-08T02:34:18;102469.00;;;13.99;92.23
81802;BME280;71199;52.490;5.448;2023-10-08T02:36:44;102460.13;;;13.95;92.21
81802;BME280;71199;52.490;5.448;2023-10-08T02:39:12;102459.75;;;13.90;92.36
81802;BME280;71199;52.490;5.448;2023-10-08T02:41:50;102450.41;;;13.91;92.12
81802;BME280;71199;52.490;5.448;2023-10-08T02:44:16;102457.91;;;13.81;93.14
81802;BME280;71199;52.490;5.448;2023-10-08T02:46:46;102465.72;;;13.85;92.97
81802;BME280;71199;52.490;5.448;2023-10-08T02:49:19;102446.94;;;13.89;93.06
81802;BME280;71199;52.490;5.448;2023-10-08T02:51:46;102430.28;;;13.81;93.41
81802;BME280;71199;52.490;5.448;2023-10-08T02:54:12;102449.63;;;13.81;93.90
81802;BME280;71199;52.490;5.448;2023-10-08T02:56:44;102497.63;;;13.80;93.64
81802;BME280;71199;52.490;5.448;2023-10-08T02:59:11;102514.00;;;13.63;93.08
81802;BME280;71199;52.490;5.448;2023-10-08T03:01:37;102496.38;;;13.64;92.15
81802;BME280;71199;52.490;5.448;2023-10-08T03:04:08;102500.91;;;13.65;91.97
81802;BME280;71199;52.490;5.448;2023-10-08T03:06:43;102475.94;;;13.57;91.55
81802;BME280;71199;52.490;5.448;2023-10-08T03:09:10;102470.59;;;13.46;90.72
81802;BME280;71199;52.490;5.448;2023-10-08T03:11:39;102486.16;;;13.47;90.63
81802;BME280;71199;52.490;5.448;2023-10-08T03:14:04;102495.94;;;13.41;90.85
81802;BME280;71199;52.490;5.448;2023-10-08T03:16:30;102522.22;;;13.45;90.79
81802;BME280;71199;52.490;5.448;2023-10-08T03:19:00;102526.56;;;13.48;90.33
81802;BME280;71199;52.490;5.448;2023-10-08T03:21:25;102515.94;;;13.53;90.71
81802;BME280;71199;52.490;5.448;2023-10-08T03:24:03;102517.31;;;13.39;91.28
81802;BME280;71199;52.490;5.448;2023-10-08T03:26:49;102510.19;;;13.37;91.82
81802;BME280;71199;52.490;5.448;2023-10-08T03:29:20;102526.19;;;13.33;92.05
81802;BME280;71199;52.490;5.448;2023-10-08T03:31:46;102531.13;;;13.29;92.22
81802;BME280;71199;52.490;5.448;2023-10-08T03:34:11;102535.91;;;13.18;91.75
81802;BME280;71199;52.490;5.448;2023-10-08T03:36:41;102542.63;;;13.15;92.01
81802;BME280;71199;52.490;5.448;2023-10-08T03:39:10;102540.00;;;13.14;92.10
81802;BME280;71199;52.490;5.448;2023-10-08T03:41:39;102541.44;;;13.18;92.21
81802;BME280;71199;52.490;5.448;2023-10-08T03:44:05;102557.44;;;13.14;92.18
81802;BME280;71199;52.490;5.448;2023-10-08T03:46:38;102579.94;;;13.19;91.35
81802;BME280;71199;52.490;5.448;2023-10-08T03:49:15;102580.66;;;13.21;90.58
81802;BME280;71199;52.490;5.448;2023-10-08T03:51:51;102564.41;;;13.18;90.83
81802;BME280;71199;52.490;5.448;2023-10-08T03:54:20;102586.06;;;13.13;90.53
81802;BME280;71199;52.490;5.448;2023-10-08T03:56:55;102587.22;;;13.10;90.76
81802;BME280;71199;52.490;5.448;2023-10-08T03:59:21;102598.13;;;13.12;90.54
81802;BME280;71199;52.490;5.448;2023-10-08T04:02:07;102591.44;;;13.24;90.16
81802;BME280;71199;52.490;5.448;2023-10-08T04:04:43;102578.16;;;13.28;89.70
81802;BME280;71199;52.490;5.448;2023-10-08T04:07:16;102573.53;;;13.28;90.08
81802;BME280;71199;52.490;5.448;2023-10-08T04:10:09;102572.66;;;13.28;90.16
81802;BME280;71199;52.490;5.448;2023-10-08T04:12:36;102574.84;;;13.34;90.23
81802;BME280;71199;52.490;5.448;2023-10-08T04:15:06;102566.75;;;13.33;90.43
81802;BME280;71199;52.490;5.448;2023-10-08T04:17:38;102560.31;;;13.32;90.74
81802;BME280;71199;52.490;5.448;2023-10-08T04:20:15;102546.94;;;13.27;90.75
81802;BME280;71199;52.490;5.448;2023-10-08T04:23:05;102519.22;;;13.19;91.37
81802;BME280;71199;52.490;5.448;2023-10-08T04:25:32;102519.22;;;13.19;91.44
81802;BME280;71199;52.490;5.448;2023-10-08T04:27:58;102536.22;;;13.15;91.92
81802;BME280;71199;52.490;5.448;2023-10-08T04:30:33;102548.00;;;13.17;92.30
81802;BME280;71199;52.490;5.448;2023-10-08T04:33:03;102565.00;;;13.02;92.79
81802;BME280;71199;52.490;5.448;2023-10-08T04:35:33;102577.50;;;13.06;92.46
81802;BME280;71199;52.490;5.448;2023-10-08T04:38:04;102571.56;;;13.01;92.96
81802;BME280;71199;52.490;5.448;2023-10-08T04:40:36;102585.78;;;12.97;93.34
81802;BME280;71199;52.490;5.448;2023-10-08T04:43:13;102586.81;;;13.05;92.10
81802;BME280;71199;52.490;5.448;2023-10-08T04:45:40;102591.03;;;13.09;91.89
81802;BME280;71199;52.490;5.448;2023-10-08T04:48:06;102596.66;;;13.18;91.00
81802;BME280;71199;52.490;5.448;2023-10-08T04:50:35;102603.66;;;13.12;90.54
81802;BME280;71199;52.490;5.448;2023-10-08T04:53:03;102585.34;;;13.11;91.05
81802;BME280;71199;52.490;5.448;2023-10-08T04:55:34;102613.66;;;13.13;90.93
81802;BME280;71199;52.490;5.448;2023-10-08T04:57:59;102623.97;;;13.11;90.54
81802;BME280;71199;52.490;5.448;2023-10-08T05:00:30;102633.16;;;13.02;91.43
81802;BME280;71199;52.490;5.448;2023-10-08T05:03:18;102625.59;;;13.04;91.23
81802;BME280;71199;52.490;5.448;2023-10-08T05:05:45;102615.13;;;13.07;91.46
81802;BME280;71199;52.490;5.448;2023-10-08T05:08:37;102617.00;;;13.07;91.68
81802;BME280;71199;52.490;5.448;2023-10-08T05:11:24;102622.84;;;13.04;91.28
81802;BME280;71199;52.490;5.448;2023-10-08T05:13:50;102624.72;;;13.03;91.05
81802;BME280;71199;52.490;5.448;2023-10-08T05:16:31;102644.31;;;13.00;91.15
81802;BME280;71199;52.490;5.448;2023-10-08T05:19:10;102636.50;;;12.96;91.40
81802;BME280;71199;52.490;5.448;2023-10-08T05:22:11;102636.91;;;13.01;91.78
81802;BME280;71199;52.490;5.448;2023-10-08T05:24:47;102622.09;;;13.02;91.94
81802;BME280;71199;52.490;5.448;2023-10-08T05:27:36;102630.66;;;12.99;92.01
81802;BME280;71199;52.490;5.448;2023-10-08T05:30:23;102661.59;;;13.02;92.10
81802;BME280;71199;52.490;5.448;2023-10-08T05:33:05;102660.75;;;13.02;91.88
81802;BME280;71199;52.490;5.448;2023-10-08T05:35:45;102683.53;;;12.94;92.45
81802;BME280;71199;52.490;5.448;2023-10-08T05:38:12;102681.22;;;12.99;92.47
81802;BME280;71199;52.490;5.448;2023-10-08T05:40:41;102656.22;;;13.01;92.38
81802;BME280;71199;52.490;5.448;2023-10-08T05:43:35;102649.97;;;12.99;92.88
81802;BME280;71199;52.490;5.448;2023-10-08T05:46:08;102658.13;;;12.90;93.23
81802;BME280;71199;52.490;5.448;2023-10-08T05:48:54;102659.16;;;12.89;93.56
81802;BME280;71199;52.490;5.448;2023-10-08T05:51:41;102640.56;;;12.92;93.70
81802;BME280;71199;52.490;5.448;2023-10-08T05:54:21;102651.47;;;12.93;93.91
81802;BME280;71199;52.490;5.448;2023-10-08T05:57:05;102637.34;;;12.96;93.58
81802;BME280;71199;52.490;5.448;2023-10-08T06:02:21;102658.13;;;12.90;93.76
81802;BME280;71199;52.490;5.448;2023-10-08T06:04:57;102644.31;;;12.90;94.09
81802;BME280;71199;52.490;5.448;2023-10-08T06:07:38;102629.78;;;12.88;93.88
81802;BME280;71199;52.490;5.448;2023-10-08T06:13:00;102646.66;;;12.95;92.50
81802;BME280;71199;52.490;5.448;2023-10-08T06:18:11;102656.38;;;12.89;92.25
81802;BME280;71199;52.490;5.448;2023-10-08T06:20:38;102648.97;;;12.80;93.12
81802;BME280;71199;52.490;5.448;2023-10-08T06:23:08;102657.81;;;12.74;92.66
81802;BME280;71199;52.490;5.448;2023-10-08T06:25:34;102668.56;;;12.77;92.20
81802;BME280;71199;52.490;5.448;2023-10-08T06:28:26;102698.63;;;12.80;91.18
81802;BME280;71199;52.490;5.448;2023-10-08T06:30:53;102707.47;;;12.74;91.52
81802;BME280;71199;52.490;5.448;2023-10-08T06:33:23;102690.03;;;12.74;91.33
81802;BME280;71199;52.490;5.448;2023-10-08T06:36:02;102678.31;;;12.81;90.15
81802;BME280;71199;52.490;5.448;2023-10-08T06:38:34;102687.88;;;12.77;90.97
81802;BME280;71199;52.490;5.448;2023-10-08T06:41:01;102674.94;;;12.78;90.76
81802;BME280;71199;52.490;5.448;2023-10-08T06:43:34;102685.13;;;12.77;91.12
81802;BME280;71199;52.490;5.448;2023-10-08T06:46:02;102686.72;;;12.80;89.81
81802;BME280;71199;52.490;5.448;2023-10-08T06:48:28;102701.69;;;12.87;89.85
81802;BME280;71199;52.490;5.448;2023-10-08T06:50:55;102712.72;;;12.87;89.75
81802;BME280;71199;52.490;5.448;2023-10-08T06:53:22;102722.16;;;12.84;89.30
81802;BME280;71199;52.490;5.448;2023-10-08T06:55:48;102714.47;;;12.88;89.29
81802;BME280;71199;52.490;5.448;2023-10-08T06:58:20;102700.38;;;12.81;89.00
81802;BME280;71199;52.490;5.448;2023-10-08T07:00:45;102708.22;;;12.86;89.08
81802;BME280;71199;52.490;5.448;2023-10-08T07:03:14;102714.59;;;12.86;89.25
81802;BME280;71199;52.490;5.448;2023-10-08T07:05:46;102729.00;;;12.90;89.34
81802;BME280;71199;52.490;5.448;2023-10-08T07:08:22;102718.25;;;12.97;88.51
81802;BME280;71199;52.490;5.448;2023-10-08T07:10:51;102714.91;;;12.93;88.37
81802;BME280;71199;52.490;5.448;2023-10-08T07:13:18;102720.44;;;12.93;88.52
81802;BME280;71199;52.490;5.448;2023-10-08T07:15:50;102720.72;;;13.00;88.27
81802;BME280;71199;52.490;5.448;2023-10-08T07:18:15;102710.56;;;13.00;88.30
81802;BME280;71199;52.490;5.448;2023-10-08T07:20:47;102705.34;;;12.97;88.57
81802;BME280;71199;52.490;5.448;2023-10-08T07:23:22;102690.50;;;12.88;88.84
81802;BME280;71199;52.490;5.448;2023-10-08T07:25:59;102674.41;;;12.94;88.19
81802;BME280;71199;52.490;5.448;2023-10-08T07:28:27;102665.84;;;12.87;88.37
81802;BME280;71199;52.490;5.448;2023-10-08T07:30:54;102677.88;;;12.86;88.50
81802;BME280;71199;52.490;5.448;2023-10-08T07:33:20;102699.22;;;12.84;88.62
81802;BME280;71199;52.490;5.448;2023-10-08T07:35:50;102705.59;;;12.84;88.90
81802;BME280;71199;52.490;5.448;2023-10-08T07:38:38;102724.06;;;12.94;88.11
81802;BME280;71199;52.490;5.448;2023-10-08T07:41:04;102738.84;;;12.93;88.59
81802;BME280;71199;52.490;5.448;2023-10-08T07:43:31;102749.06;;;13.02;88.00
81802;BME280;71199;52.490;5.448;2023-10-08T07:45:58;102748.63;;;13.06;88.05
81802;BME280;71199;52.490;5.448;2023-10-08T07:48:23;102741.06;;;13.08;87.79
81802;BME280;71199;52.490;5.448;2023-10-08T07:50:55;102741.09;;;13.18;87.00
81802;BME280;71199;52.490;5.448;2023-10-08T07:53:25;102742.22;;;13.25;86.37
81802;BME280;71199;52.490;5.448;2023-10-08T07:55:51;102746.03;;;13.24;85.93
81802;BME280;71199;52.490;5.448;2023-10-08T07:58:17;102762.31;;;13.37;85.61
81802;BME280;71199;52.490;5.448;2023-10-08T08:00:44;102764.50;;;13.34;85.49
81802;BME280;71199;52.490;5.448;2023-10-08T08:03:21;102770.47;;;13.39;85.61
81802;BME280;71199;52.490;5.448;2023-10-08T08:05:48;102777.72;;;13.40;85.50
81802;BME280;71199;52.490;5.448;2023-10-08T08:08:17;102778.59;;;13.40;85.04
81802;BME280;71199;52.490;5.448;2023-10-08T08:10:45;102775.13;;;13.48;85.56
81802;BME280;71199;52.490;5.448;2023-10-08T08:13:11;102777.28;;;13.54;85.13
81802;BME280;71199;52.490;5.448;2023-10-08T08:15:37;102783.53;;;13.66;84.70
81802;BME280;71199;52.490;5.448;2023-10-08T08:18:07;102774.81;;;13.70;84.14
81802;BME280;71199;52.490;5.448;2023-10-08T08:20:36;102772.78;;;13.73;84.04
81802;BME280;71199;52.490;5.448;2023-10-08T08:23:07;102777.56;;;13.80;82.88
81802;BME280;71199;52.490;5.448;2023-10-08T08:25:40;102789.03;;;13.95;82.55
81802;BME280;71199;52.490;5.448;2023-10-08T08:28:21;102793.97;;;14.01;82.20
81802;BME280;71199;52.490;5.448;2023-10-08T08:30:50;102795.84;;;14.10;82.06
81802;BME280;71199;52.490;5.448;2023-10-08T08:33:18;102800.19;;;14.23;81.95
81802;BME280;71199;52.490;5.448;2023-10-08T08:36:08;102797.06;;;14.36;81.60
81802;BME280;71199;52.490;5.448;2023-10-08T08:38:35;102791.66;;;14.44;80.97
81802;BME280;71199;52.490;5.448;2023-10-08T08:41:04;102776.66;;;14.56;79.61
81802;BME280;71199;52.490;5.448;2023-10-08T08:43:36;102786.53;;;14.59;79.44
81802;BME280;71199;52.490;5.448;2023-10-08T08:46:05;102795.13;;;14.56;80.24
81802;BME280;71199;52.490;5.448;2023-10-08T08:48:36;102802.97;;;14.60;78.73
81802;BME280;71199;52.490;5.448;2023-10-08T08:51:01;102787.63;;;14.66;78.39
81802;BME280;71199;52.490;5.448;2023-10-08T08:53:27;102777.88;;;14.71;78.76
81802;BME280;71199;52.490;5.448;2023-10-08T08:55:55;102783.31;;;14.91;78.50
81802;BME280;71199;52.490;5.448;2023-10-08T08:58:21;102785.47;;;15.15;77.84
81802;BME280;71199;52.490;5.448;2023-10-08T09:00:47;102778.75;;;15.18;73.66
81802;BME280;71199;52.490;5.448;2023-10-08T09:03:17;102787.38;;;15.15;74.27
81802;BME280;71199;52.490;5.448;2023-10-08T09:05:45;102796.88;;;15.12;74.20
81802;BME280;71199;52.490;5.448;2023-10-08T09:08:15;102786.88;;;15.19;73.13
81802;BME280;71199;52.490;5.448;2023-10-08T09:10:43;102791.72;;;15.17;72.85
81802;BME280;71199;52.490;5.448;2023-10-08T09:13:21;102795.81;;;15.13;71.90
81802;BME280;71199;52.490;5.448;2023-10-08T09:15:51;102804.47;;;15.10;71.91
81802;BME280;71199;52.490;5.448;2023-10-08T09:18:16;102798.72;;;14.94;72.67
81802;BME280;71199;52.490;5.448;2023-10-08T09:20:43;102807.78;;;14.86;72.30
81802;BME280;71199;52.490;5.448;2023-10-08T09:23:13;102799.44;;;14.96;72.21
81802;BME280;71199;52.490;5.448;2023-10-08T09:25:40;102796.81;;;14.94;72.24
81802;BME280;71199;52.490;5.448;2023-10-08T09:28:05;102799.69;;;15.02;72.42
81802;BME280;71199;52.490;5.448;2023-10-08T09:30:34;102792.66;;;15.08;72.21
81802;BME280;71199;52.490;5.448;2023-10-08T09:33:13;102791.25;;;15.22;72.21
81802;BME280;71199;52.490;5.448;2023-10-08T09:35:39;102795.94;;;15.39;71.30
81802;BME280;71199;52.490;5.448;2023-10-08T09:38:06;102796.09;;;15.38;70.40
81802;BME280;71199;52.490;5.448;2023-10-08T09:40:39;102794.03;;;15.40;70.29
81802;BME280;71199;52.490;5.448;2023-10-08T09:43:10;102789.59;;;15.29;70.40
81802;BME280;71199;52.490;5.448;2023-10-08T09:45:38;102792.69;;;15.44;70.15
81802;BME280;71199;52.490;5.448;2023-10-08T09:48:07;102798.94;;;15.64;70.82
81802;BME280;71199;52.490;5.448;2023-10-08T09:50:40;102788.56;;;15.48;69.95
81802;BME280;71199;52.490;5.448;2023-10-08T09:53:10;102779.38;;;15.65;69.53
81802;BME280;71199;52.490;5.448;2023-10-08T09:55:56;102783.75;;;15.86;69.52
81802;BME280;71199;52.490;5.448;2023-10-08T09:58:22;102794.66;;;15.87;68.98
81802;BME280;71199;52.490;5.448;2023-10-08T10:00:50;102793.94;;;15.85;68.95
81802;BME280;71199;52.490;5.448;2023-10-08T10:03:18;102795.22;;;15.91;69.44
81802;BME280;71199;52.490;5.448;2023-10-08T10:05:44;102807.66;;;15.87;69.36
81802;BME280;71199;52.490;5.448;2023-10-08T10:08:10;102811.97;;;16.07;68.19
81802;BME280;71199;52.490;5.448;2023-10-08T10:10:36;102813.72;;;16.08;68.24
81802;BME280;71199;52.490;5.448;2023-10-08T10:13:10;102805.56;;;16.07;67.56
81802;BME280;71199;52.490;5.448;2023-10-08T10:15:39;102804.09;;;16.21;67.50
81802;BME280;71199;52.490;5.448;2023-10-08T10:18:13;102813.88;;;16.07;68.19
81802;BME280;71199;52.490;5.448;2023-10-08T10:20:53;102814.03;;;16.05;68.05
81802;BME280;71199;52.490;5.448;2023-10-08T10:23:42;102820.34;;;16.16;68.17
81802;BME280;71199;52.490;5.448;2023-10-08T10:26:33;102819.69;;;16.22;67.63
81802;BME280;71199;52.490;5.448;2023-10-08T10:31:47;102814.34;;;16.28;67.41
81802;BME280;71199;52.490;5.448;2023-10-08T10:34:13;102805.13;;;16.20;67.68
81802;BME280;71199;52.490;5.448;2023-10-08T10:36:42;102795.97;;;16.01;67.17
81802;BME280;71199;52.490;5.448;2023-10-08T10:39:09;102795.13;;;16.01;67.10
81802;BME280;71199;52.490;5.448;2023-10-08T10:41:43;102787.69;;;15.83;67.81
81802;BME280;71199;52.490;5.448;2023-10-08T10:44:10;102794.66;;;15.51;68.27
81802;BME280;71199;52.490;5.448;2023-10-08T10:46:35;102820.53;;;15.60;68.15
81802;BME280;71199;52.490;5.448;2023-10-08T10:49:06;102821.34;;;15.70;68.70
81802;BME280;71199;52.490;5.448;2023-10-08T10:51:48;102813.28;;;15.77;69.07
81802;BME280;71199;52.490;5.448;2023-10-08T10:54:23;102818.38;;;15.82;68.92
81802;BME280;71199;52.490;5.448;2023-10-08T10:56:49;102799.56;;;15.94;67.83
81802;BME280;71199;52.490;5.448;2023-10-08T10:59:29;102797.28;;;15.89;68.13
81802;BME280;71199;52.490;5.448;2023-10-08T11:02:01;102802.97;;;15.87;68.40
81802;BME280;71199;52.490;5.448;2023-10-08T11:04:44;102807.22;;;15.74;68.63
81802;BME280;71199;52.490;5.448;2023-10-08T11:07:15;102809.72;;;15.67;69.40
81802;BME280;71199;52.490;5.448;2023-10-08T11:09:42;102799.50;;;15.67;69.95
81802;BME280;71199;52.490;5.448;2023-10-08T11:12:10;102789.34;;;15.58;69.87
81802;BME280;71199;52.490;5.448;2023-10-08T11:14:40;102785.50;;;15.51;70.46
81802;BME280;71199;52.490;5.448;2023-10-08T11:17:25;102784.13;;;15.37;70.25
81802;BME280;71199;52.490;5.448;2023-10-08T11:19:52;102788.75;;;15.46;69.73
81802;BME280;71199;52.490;5.448;2023-10-08T11:22:18;102780.44;;;15.46;69.36
81802;BME280;71199;52.490;5.448;2023-10-08T11:24:45;102777.97;;;15.43;69.97
81802;BME280;71199;52.490;5.448;2023-10-08T11:27:17;102769.44;;;15.55;69.13
81802;BME280;71199;52.490;5.448;2023-10-08T11:29:47;102762.28;;;15.52;68.84
81802;BME280;71199;52.490;5.448;2023-10-08T11:32:14;102765.59;;;15.56;69.27
81802;BME280;71199;52.490;5.448;2023-10-08T11:34:57;102753.03;;;15.61;69.07
81802;BME280;71199;52.490;5.448;2023-10-08T11:37:29;102753.25;;;15.68;68.88
81802;BME280;71199;52.490;5.448;2023-10-08T11:39:56;102750.00;;;15.73;68.90
81802;BME280;71199;52.490;5.448;2023-10-08T11:42:25;102736.22;;;15.81;68.92
81802;BME280;71199;52.490;5.448;2023-10-08T11:45:06;102732.50;;;15.90;69.07
81802;BME280;71199;52.490;5.448;2023-10-08T11:47:47;102722.63;;;15.96;68.21
81802;BME280;71199;52.490;5.448;2023-10-08T11:50:30;102718.53;;;16.08;68.10
81802;BME280;71199;52.490;5.448;2023-10-08T11:53:01;102719.28;;;16.18;68.63
81802;BME280;71199;52.490;5.448;2023-10-08T11:55:34;102708.09;;;16.28;67.64
81802;BME280;71199;52.490;5.448;2023-10-08T11:58:08;102696.91;;;16.46;67.48
81802;BME280;71199;52.490;5.448;2023-10-08T12:00:38;102712.06;;;16.60;66.27
81802;BME280;71199;52.490;5.448;2023-10-08T12:03:14;102700.06;;;16.59;66.57
81802;BME280;71199;52.490;5.448;2023-10-08T12:05:44;102695.41;;;16.68;66.75
81802;BME280;71199;52.490;5.448;2023-10-08T12:08:14;102698.91;;;16.78;66.29
81802;BME280;71199;52.490;5.448;2023-10-08T12:10:42;102694.06;;;16.80;65.87
81802;BME280;71199;52.490;5.448;2023-10-08T12:13:08;102689.69;;;16.69;65.62
81802;BME280;71199;52.490;5.448;2023-10-08T12:15:35;102690.53;;;16.54;65.76
81802;BME280;71199;52.490;5.448;2023-10-08T12:18:04;102688.41;;;16.47;66.05
81802;BME280;71199;52.490;5.448;2023-10-08T12:20:50;102691.44;;;16.28;67.05
81802;BME280;71199;52.490;5.448;2023-10-08T12:23:15;102685.19;;;16.26;67.54
81802;BME280;71199;52.490;5.448;2023-10-08T12:25:56;102678.63;;;16.27;68.15
81802;BME280;71199;52.490;5.448;2023-10-08T12:28:22;102678.69;;;16.43;67.46
81802;BME280;71199;52.490;5.448;2023-10-08T12:30:49;102673.50;;;16.48;67.27
81802;BME280;71199;52.490;5.448;2023-10-08T12:33:18;102666.25;;;16.56;67.12
81802;BME280;71199;52.490;5.448;2023-10-08T12:35:45;102663.16;;;16.75;67.24
81802;BME280;71199;52.490;5.448;2023-10-08T12:38:11;102659.22;;;16.94;65.97
81802;BME280;71199;52.490;5.448;2023-10-08T12:40:38;102642.25;;;17.14;64.68
81802;BME280;71199;52.490;5.448;2023-10-08T12:43:14;102648.31;;;17.17;65.18
81802;BME280;71199;52.490;5.448;2023-10-08T12:45:47;102649.19;;;17.18;65.13
81802;BME280;71199;52.490;5.448;2023-10-08T12:50:45;102651.59;;;17.12;64.79
81802;BME280;71199;52.490;5.448;2023-10-08T12:53:17;102657.69;;;17.08;65.35
81802;BME280;71199;52.490;5.448;2023-10-08T12:55:42;102651.44;;;17.22;65.25
81802;BME280;71199;52.490;5.448;2023-10-08T12:58:08;102652.13;;;17.32;64.61
81802;BME280;71199;52.490;5.448;2023-10-08T13:00:38;102659.06;;;17.37;64.75
81802;BME280;71199;52.490;5.448;2023-10-08T13:03:06;102660.09;;;17.44;64.73
81802;BME280;71199;52.490;5.448;2023-10-08T13:05:41;102663.09;;;17.34;64.52
81802;BME280;71199;52.490;5.448;2023-10-08T13:08:10;102665.34;;;17.30;64.68
81802;BME280;71199;52.490;5.448;2023-10-08T13:10:39;102675.91;;;17.19;64.59
81802;BME280;71199;52.490;5.448;2023-10-08T13:13:06;102676.06;;;17.17;65.08
81802;BME280;71199;52.490;5.448;2023-10-08T13:15:32;102675.38;;;17.23;65.56
81802;BME280;71199;52.490;5.448;2023-10-08T13:18:01;102683.22;;;17.28;65.23
81802;BME280;71199;52.490;5.448;2023-10-08T13:20:28;102678.53;;;17.45;64.82
81802;BME280;71199;52.490;5.448;2023-10-08T13:23:01;102680.94;;;17.56;64.32
81802;BME280;71199;52.490;5.448;2023-10-08T13:25:27;102678.50;;;17.78;63.80